Time;durP1;ratioP1;P1;durP2;ratioP2;P2;SDS_P1;SDS_P2;PMS_P1;PMS_P2;Temp;Humidity;BMP_temperature;BMP_pressure;BME280_temperature;BME280_humidity;BME280_pressure;Samples;Min_cycle;Max_cycle;Signal;HPM_P1;HPM_P2
2022/07/26 00:01:39;;;;;;;2.53;2.43;;;37.00;47.70;;;;;;5057186;28;20574;-66
2022/07/26 00:04:10;;;;;;;3.10;2.33;;;37.00;44.00;;;;;;5057790;28;20814;-65
2022/07/26 00:06:41;;;;;;;2.13;2.03;;;36.90;43.00;;;;;;5059195;28;20466;-65
2022/07/26 00:09:12;;;;;;;2.80;2.60;;;36.80;41.00;;;;;;5064729;28;20450;-67
2022/07/26 00:11:45;;;;;;;2.70;2.50;;;36.70;42.30;;;;;;5062273;28;20567;-67
2022/07/26 00:14:16;;;;;;;2.70;2.30;;;36.70;42.00;;;;;;5055076;28;20481;-67
2022/07/26 00:16:47;;;;;;;2.70;2.50;;;36.70;41.00;;;;;;5056075;28;20904;-68
2022/07/26 00:19:19;;;;;;;2.23;2.13;;;36.70;40.90;;;;;;5057823;28;20476;-67
2022/07/26 00:22:32;;;;;;;2.20;2.10;;;36.60;41.90;;;;;;5054693;28;20470;-67
2022/07/26 00:24:41;;;;;;;2.50;2.30;;;36.60;42.10;;;;;;5057207;28;20471;-66
2022/07/26 00:27:13;;;;;;;2.60;2.37;;;36.70;41.80;;;;;;5058074;28;20455;-68
2022/07/26 00:29:44;;;;;;;2.97;2.77;;;36.70;42.10;;;;;;5056427;28;20456;-67
2022/07/26 00:32:15;;;;;;;2.50;2.30;;;36.60;42.50;;;;;;5057017;28;20487;-67
2022/07/26 00:34:45;;;;;;;2.17;2.07;;;36.50;42.10;;;;;;5057499;28;20462;-66
2022/07/26 00:37:16;;;;;;;2.10;2.00;;;36.40;42.80;;;;;;5055682;28;20595;-67
2022/07/26 00:39:49;;;;;;;2.13;2.03;;;36.40;42.40;;;;;;5057457;28;20486;-68
2022/07/26 00:42:22;;;;;;;2.30;2.20;;;36.30;41.60;;;;;;5055415;28;20463;-66
2022/07/26 00:44:53;;;;;;;2.67;2.47;;;36.20;41.70;;;;;;5057787;28;20463;-67
2022/07/26 00:47:23;;;;;;;2.30;2.20;;;36.20;42.40;;;;;;5059787;28;20452;-69
2022/07/26 00:49:54;;;;;;;2.60;2.40;;;36.00;41.20;;;;;;5070428;28;20454;-68
2022/07/26 00:52:25;;;;;;;1.90;1.80;;;35.90;41.10;;;;;;5063019;28;20494;-67
2022/07/26 00:54:56;;;;;;;2.70;2.50;;;35.90;40.10;;;;;;5063218;28;20464;-68
2022/07/26 00:57:29;;;;;;;2.07;1.97;;;35.90;40.90;;;;;;5071387;28;20483;-67
2022/07/26 01:00:00;;;;;;;2.70;2.10;;;35.90;40.10;;;;;;5063944;28;20514;-68
2022/07/26 01:02:31;;;;;;;2.33;2.23;;;36.00;39.70;;;;;;5078493;28;20528;-67
2022/07/26 01:05:02;;;;;;;2.80;2.60;;;36.00;40.20;;;;;;5074402;28;20452;-68
2022/07/26 01:07:33;;;;;;;3.07;2.87;;;35.90;40.50;;;;;;5061158;28;20546;-67
2022/07/26 01:10:04;;;;;;;2.57;2.37;;;35.80;40.80;;;;;;5055544;28;20467;-68
2022/07/26 01:12:37;;;;;;;3.70;3.50;;;35.80;41.30;;;;;;5056876;28;20483;-67
2022/07/26 01:15:09;;;;;;;3.07;2.87;;;35.80;43.00;;;;;;5055278;28;20453;-67
2022/07/26 01:17:40;;;;;;;2.90;2.67;;;35.70;42.80;;;;;;5056402;28;20543;-68
2022/07/26 01:20:13;;;;;;;2.90;2.70;;;35.70;43.40;;;;;;5054537;28;21276;-68
2022/07/26 01:22:45;;;;;;;2.93;2.73;;;35.70;42.70;;;;;;5053579;28;20460;-68
2022/07/26 01:25:16;;;;;;;3.17;2.97;;;35.60;43.70;;;;;;5056658;28;20448;-67
2022/07/26 01:27:47;;;;;;;2.60;2.40;;;35.40;44.40;;;;;;5054455;28;20472;-67
2022/07/26 01:30:18;;;;;;;3.60;3.20;;;35.40;45.70;;;;;;5054959;28;20464;-67
2022/07/26 01:32:48;;;;;;;3.80;3.50;;;35.30;45.80;;;;;;5057788;28;21126;-67
2022/07/26 01:35:19;;;;;;;3.33;3.13;;;35.20;46.00;;;;;;5055397;28;20464;-67
2022/07/26 01:37:52;;;;;;;4.17;3.87;;;35.20;47.20;;;;;;5055223;28;20467;-66
2022/07/26 01:40:22;;;;;;;3.53;3.30;;;35.10;46.50;;;;;;5054730;28;20475;-66
2022/07/26 01:42:53;;;;;;;2.97;2.77;;;35.00;47.20;;;;;;5055861;28;21217;-66
2022/07/26 01:45:25;;;;;;;3.37;3.07;;;34.90;48.20;;;;;;5062904;28;20502;-68
2022/07/26 01:47:56;;;;;;;2.83;2.57;;;34.80;48.30;;;;;;5062472;28;20550;-66
2022/07/26 01:50:27;;;;;;;2.80;2.60;;;34.70;48.20;;;;;;5061273;28;20483;-66
2022/07/26 01:53:00;;;;;;;3.23;3.03;;;34.60;48.60;;;;;;5067296;28;20497;-67
2022/07/26 01:55:35;;;;;;;3.00;2.80;;;34.60;48.80;;;;;;5067505;28;20493;-67
2022/07/26 01:58:06;;;;;;;2.87;2.67;;;34.50;49.10;;;;;;5075730;28;20460;-67
2022/07/26 02:00:37;;;;;;;2.90;2.70;;;34.50;50.10;;;;;;5060417;28;20460;-69
2022/07/26 02:03:07;;;;;;;3.13;2.93;;;34.40;50.10;;;;;;5059936;28;20452;-66
2022/07/26 02:05:38;;;;;;;3.50;3.20;;;34.40;49.10;;;;;;5060474;28;20491;-69
2022/07/26 02:08:12;;;;;;;3.30;3.00;;;34.30;49.30;;;;;;5068698;28;20508;-70
2022/07/26 02:11:01;;;;;;;3.60;3.30;;;34.20;50.10;;;;;;5061479;28;20520;-71
2022/07/26 02:13:34;;;;;;;2.87;2.67;;;34.00;49.90;;;;;;5068886;28;20565;-68
2022/07/26 02:16:07;;;;;;;3.03;2.83;;;34.00;49.70;;;;;;5078223;28;20470;-68
2022/07/26 02:18:39;;;;;;;5.67;3.10;;;33.90;50.50;;;;;;5065251;28;20473;-68
2022/07/26 02:21:10;;;;;;;2.90;2.70;;;33.90;50.70;;;;;;5062167;28;20523;-68
2022/07/26 02:23:43;;;;;;;3.77;3.13;;;33.80;50.90;;;;;;5061259;28;20463;-68
2022/07/26 02:26:13;;;;;;;3.80;3.50;;;33.70;51.20;;;;;;5073857;28;20794;-68
2022/07/26 02:28:44;;;;;;;4.67;4.27;;;33.60;51.80;;;;;;5061839;28;20475;-69
2022/07/26 02:31:15;;;;;;;6.73;4.63;;;33.50;52.60;;;;;;5053915;28;20452;-68
2022/07/26 02:33:46;;;;;;;4.07;3.80;;;33.40;52.90;;;;;;5055552;28;20455;-68
2022/07/26 02:36:17;;;;;;;6.10;5.60;;;33.30;53.20;;;;;;5054153;28;20977;-68
2022/07/26 02:38:49;;;;;;;3.80;3.50;;;33.10;52.90;;;;;;5053624;28;21012;-69
2022/07/26 02:41:22;;;;;;;5.63;5.13;;;32.90;53.40;;;;;;5055913;28;20494;-67
2022/07/26 02:43:53;;;;;;;3.40;3.10;;;32.80;53.80;;;;;;5054358;28;20466;-69
2022/07/26 02:46:23;;;;;;;2.70;2.50;;;32.60;54.00;;;;;;5053196;28;20464;-68
2022/07/26 02:48:54;;;;;;;3.13;2.93;;;32.40;54.20;;;;;;5055656;28;20455;-68
2022/07/26 02:51:25;;;;;;;3.23;3.00;;;32.30;54.50;;;;;;5052109;28;20485;-68
2022/07/26 02:53:58;;;;;;;2.90;2.70;;;32.20;54.70;;;;;;5053670;28;20471;-68
2022/07/26 02:56:29;;;;;;;2.87;2.67;;;32.20;54.50;;;;;;5054498;28;20488;-68
2022/07/26 02:58:59;;;;;;;3.57;3.27;;;32.20;55.00;;;;;;5053886;28;20494;-68
2022/07/26 03:01:30;;;;;;;2.93;2.73;;;32.10;54.90;;;;;;5054158;28;20455;-68
2022/07/26 03:04:01;;;;;;;3.47;3.00;;;32.10;55.30;;;;;;5063851;28;20438;-67
2022/07/26 03:06:32;;;;;;;2.87;2.67;;;32.00;54.20;;;;;;5071977;28;20459;-67
2022/07/26 03:09:05;;;;;;;3.30;3.00;;;31.90;55.20;;;;;;5076580;28;20490;-68
2022/07/26 03:11:37;;;;;;;3.10;2.90;;;31.90;55.20;;;;;;5061744;28;20464;-67
2022/07/26 03:14:09;;;;;;;3.00;2.80;;;31.80;55.30;;;;;;5057751;28;20534;-68
2022/07/26 03:16:40;;;;;;;3.00;2.80;;;31.70;55.60;;;;;;5056906;28;20450;-69
2022/07/26 03:19:11;;;;;;;3.07;2.17;;;31.60;55.90;;;;;;5058577;28;20550;-67
2022/07/26 03:21:42;;;;;;;2.77;2.57;;;31.30;56.30;;;;;;5055476;28;20470;-68
2022/07/26 03:24:14;;;;;;;3.37;3.07;;;31.10;57.20;;;;;;5058281;28;20504;-68
2022/07/26 03:26:45;;;;;;;2.97;2.77;;;30.90;57.00;;;;;;5055989;28;20487;-68
2022/07/26 03:29:15;;;;;;;3.10;2.30;;;30.70;57.30;;;;;;5057014;28;20481;-68
2022/07/26 03:31:46;;;;;;;3.20;2.93;;;30.60;57.50;;;;;;5055367;28;20462;-68
2022/07/26 03:34:17;;;;;;;2.57;2.37;;;30.40;57.70;;;;;;5057626;28;20473;-68
2022/07/26 03:36:48;;;;;;;2.63;2.43;;;30.30;57.70;;;;;;5054407;28;20470;-68
2022/07/26 03:39:20;;;;;;;3.17;2.93;;;30.30;57.30;;;;;;5057036;28;20459;-68
2022/07/26 03:41:51;;;;;;;3.03;2.83;;;30.40;57.20;;;;;;5056672;28;20463;-68
2022/07/26 03:44:22;;;;;;;3.37;3.07;;;30.30;57.00;;;;;;5058868;28;20473;-68
2022/07/26 03:46:53;;;;;;;3.00;2.80;;;30.30;57.10;;;;;;5059595;28;20458;-68
2022/07/26 03:49:23;;;;;;;2.80;2.60;;;30.30;57.20;;;;;;5059574;28;20466;-70
2022/07/26 03:51:54;;;;;;;3.37;3.07;;;30.20;57.10;;;;;;5063435;28;20457;-69
2022/07/26 03:54:27;;;;;;;3.40;3.10;;;30.10;57.70;;;;;;5065202;28;20466;-69
2022/07/26 03:56:56;;;;;;;3.10;2.80;;;29.90;57.40;;;;;;5063872;28;20504;-69
2022/07/26 03:59:46;;;;;;;2.80;2.60;;;29.80;58.30;;;;;;5050585;28;20498;-67
2022/07/26 04:02:17;;;;;;;2.93;2.73;;;29.50;59.60;;;;;;5053805;28;20459;-67
2022/07/26 04:04:47;;;;;;;3.37;3.07;;;29.30;59.40;;;;;;5064734;28;20580;-67
2022/07/26 04:07:18;;;;;;;3.50;3.07;;;29.10;59.30;;;;;;5061521;28;20581;-66
2022/07/26 04:09:51;;;;;;;3.33;3.13;;;29.00;61.30;;;;;;5060988;28;20442;-66
2022/07/26 04:12:22;;;;;;;2.53;2.33;;;28.90;60.80;;;;;;5063789;28;20492;-66
2022/07/26 04:14:53;;;;;;;3.43;3.13;;;28.70;60.50;;;;;;5064096;28;20526;-67
2022/07/26 04:17:24;;;;;;;2.83;2.63;;;28.60;64.00;;;;;;5052899;28;20453;-66
2022/07/26 04:19:54;;;;;;;3.50;3.20;;;28.50;63.70;;;;;;5063416;28;20854;-67
2022/07/26 04:22:25;;;;;;;2.73;2.53;;;28.30;63.70;;;;;;5055185;28;20560;-67
2022/07/26 04:24:58;;;;;;;2.90;2.70;;;28.20;62.60;;;;;;5054667;28;20486;-67
2022/07/26 04:27:28;;;;;;;3.60;3.30;;;28.10;63.10;;;;;;5056623;28;20541;-67
2022/07/26 04:29:59;;;;;;;3.37;3.07;;;28.00;63.00;;;;;;5055449;28;20468;-68
2022/07/26 04:32:30;;;;;;;3.33;3.03;;;28.10;62.70;;;;;;5056503;28;20484;-67
2022/07/26 04:35:01;;;;;;;3.00;2.80;;;28.20;62.20;;;;;;5056416;28;20472;-68
2022/07/26 04:37:33;;;;;;;3.20;3.00;;;28.20;62.50;;;;;;5054016;28;20464;-68
2022/07/26 04:40:07;;;;;;;3.40;2.80;;;28.20;62.60;;;;;;5056227;28;20468;-68
2022/07/26 04:42:37;;;;;;;3.40;3.10;;;28.20;61.80;;;;;;5057047;28;20457;-68
2022/07/26 04:45:09;;;;;;;3.07;2.80;;;28.10;61.50;;;;;;5056616;28;20573;-67
2022/07/26 04:47:43;;;;;;;3.43;2.60;;;28.10;62.10;;;;;;5056606;28;20471;-67
2022/07/26 04:50:13;;;;;;;5.93;2.80;;;28.00;60.90;;;;;;5056864;28;20471;-67
2022/07/26 04:52:44;;;;;;;3.20;2.80;;;28.00;60.30;;;;;;5056158;28;20491;-67
2022/07/26 04:55:18;;;;;;;2.83;2.63;;;28.00;60.20;;;;;;5055390;28;20465;-67
2022/07/26 04:57:48;;;;;;;3.33;2.80;;;28.00;60.30;;;;;;5058746;28;20461;-67
2022/07/26 05:00:23;;;;;;;4.00;2.77;;;27.90;63.10;;;;;;5059017;28;20817;-69
2022/07/26 05:02:55;;;;;;;2.80;2.60;;;27.70;62.50;;;;;;5062237;28;20456;-67
2022/07/26 05:05:28;;;;;;;2.43;2.23;;;27.50;62.30;;;;;;5061057;28;20594;-68
2022/07/26 05:08:00;;;;;;;2.50;2.30;;;27.40;64.20;;;;;;5059579;28;20460;-67
2022/07/26 05:10:34;;;;;;;2.77;2.53;;;27.20;64.80;;;;;;5061467;28;20482;-67
2022/07/26 05:13:06;;;;;;;3.17;2.67;;;27.10;64.20;;;;;;5079077;28;20494;-68
2022/07/26 05:15:37;;;;;;;2.37;2.17;;;26.90;66.40;;;;;;5068098;28;20761;-68
2022/07/26 05:18:11;;;;;;;2.90;2.70;;;26.80;65.30;;;;;;5063834;28;20446;-68
2022/07/26 05:20:42;;;;;;;2.63;2.27;;;26.70;67.00;;;;;;5062340;28;20452;-68
2022/07/26 05:23:15;;;;;;;3.00;2.80;;;26.60;65.40;;;;;;5063368;28;20455;-67
2022/07/26 05:25:48;;;;;;;2.87;2.60;;;26.50;65.50;;;;;;5074910;28;20451;-67
2022/07/26 05:28:19;;;;;;;2.83;2.63;;;26.40;67.60;;;;;;5071324;28;20466;-67
2022/07/26 05:30:50;;;;;;;2.77;2.57;;;26.40;66.30;;;;;;5076975;28;20458;-67
2022/07/26 05:33:21;;;;;;;2.90;2.60;;;26.30;67.90;;;;;;5082338;28;20557;-66
2022/07/26 05:35:52;;;;;;;2.63;2.43;;;26.20;66.90;;;;;;5062951;28;20468;-66
2022/07/26 05:38:24;;;;;;;2.47;2.27;;;26.10;67.00;;;;;;5060246;28;20467;-66
2022/07/26 05:40:56;;;;;;;2.80;2.60;;;26.00;67.10;;;;;;5061721;28;20457;-66
2022/07/26 05:43:27;;;;;;;2.47;2.27;;;26.00;67.20;;;;;;5063661;28;20458;-66
2022/07/26 05:46:11;;;;;;;2.60;2.40;;;25.90;69.00;;;;;;5063511;28;20857;-67
2022/07/26 05:48:42;;;;;;;2.90;2.70;;;25.90;69.80;;;;;;5064400;28;20450;-68
2022/07/26 05:51:13;;;;;;;3.00;2.70;;;25.80;70.40;;;;;;5061554;28;20481;-66
2022/07/26 05:53:44;;;;;;;2.93;2.63;;;25.70;70.50;;;;;;5077155;28;20488;-66
2022/07/26 05:56:16;;;;;;;3.23;3.03;;;25.60;72.90;;;;;;5075529;28;20495;-66
2022/07/26 05:58:47;;;;;;;4.33;2.70;;;25.50;74.30;;;;;;5062574;28;20465;-66
2022/07/26 06:01:18;;;;;;;3.30;2.70;;;25.30;77.40;;;;;;5062361;28;20455;-67
2022/07/26 06:03:49;;;;;;;2.87;2.63;;;25.20;76.80;;;;;;5064619;28;20462;-67
2022/07/26 06:06:20;;;;;;;2.80;2.60;;;25.20;79.00;;;;;;5077060;28;20539;-67
2022/07/26 06:08:51;;;;;;;3.17;2.87;;;25.10;79.70;;;;;;5063746;28;20469;-67
2022/07/26 06:11:23;;;;;;;2.60;2.40;;;25.00;80.40;;;;;;5061641;28;20477;-67
2022/07/26 06:13:54;;;;;;;2.73;2.53;;;24.90;80.80;;;;;;5060855;28;20502;-67
2022/07/26 06:16:25;;;;;;;3.90;2.93;;;24.90;81.90;;;;;;5070499;28;20515;-67
2022/07/26 06:18:56;;;;;;;2.73;2.53;;;24.80;76.60;;;;;;5073773;28;20441;-67
2022/07/26 06:21:27;;;;;;;3.00;2.70;;;24.70;75.90;;;;;;5065510;28;20460;-66
2022/07/26 06:23:58;;;;;;;3.10;2.90;;;24.70;78.20;;;;;;5073602;28;20458;-67
2022/07/26 06:26:30;;;;;;;3.00;2.70;;;24.60;78.60;;;;;;5067309;28;20790;-67
2022/07/26 06:29:01;;;;;;;2.97;2.67;;;24.60;77.50;;;;;;5061645;28;20460;-67
2022/07/26 06:31:32;;;;;;;3.20;2.90;;;24.60;81.40;;;;;;5069634;28;20444;-67
2022/07/26 06:34:03;;;;;;;2.93;2.70;;;24.40;80.50;;;;;;5065277;28;20876;-67
2022/07/26 06:36:33;;;;;;;3.27;2.97;;;24.40;82.10;;;;;;5057963;28;20491;-67
2022/07/26 06:39:04;;;;;;;3.30;2.60;;;24.30;84.10;;;;;;5065809;28;20465;-67
2022/07/26 06:41:37;;;;;;;3.13;2.70;;;24.20;83.30;;;;;;5064446;28;21089;-66
2022/07/26 06:44:08;;;;;;;3.50;3.20;;;24.20;84.90;;;;;;5058873;28;20475;-66
2022/07/26 06:46:39;;;;;;;3.20;2.73;;;24.10;85.70;;;;;;5058789;28;20440;-67
2022/07/26 06:49:10;;;;;;;2.93;2.27;;;23.90;85.10;;;;;;5058722;28;20452;-66
2022/07/26 06:51:41;;;;;;;2.60;2.40;;;23.90;87.40;;;;;;5058509;28;20484;-66
2022/07/26 06:54:12;;;;;;;2.70;2.50;;;23.80;87.40;;;;;;5058632;28;20491;-66
2022/07/26 06:56:44;;;;;;;3.00;2.70;;;23.80;87.40;;;;;;5057488;28;20489;-65
2022/07/26 06:59:15;;;;;;;3.03;2.73;;;23.70;88.50;;;;;;5058510;28;20440;-66
2022/07/26 07:01:46;;;;;;;2.73;2.53;;;23.70;89.60;;;;;;5059308;28;20437;-66
2022/07/26 07:04:29;;;;;;;2.83;2.63;;;23.70;90.30;;;;;;5058683;28;20569;-66
2022/07/26 07:07:04;;;;;;;3.30;2.70;;;23.60;90.40;;;;;;5056248;28;20456;-66
2022/07/26 07:09:36;;;;;;;3.43;3.13;;;23.50;90.80;;;;;;5057489;28;20993;-66
2022/07/26 07:12:09;;;;;;;3.17;2.83;;;23.40;90.50;;;;;;5058291;28;20471;-66
2022/07/26 07:14:40;;;;;;;3.47;3.17;;;23.40;91.60;;;;;;5058121;28;20514;-66
2022/07/26 07:17:11;;;;;;;3.77;3.33;;;23.30;91.70;;;;;;5062949;28;20460;-66
2022/07/26 07:19:48;;;;;;;3.57;3.27;;;23.30;92.00;;;;;;5058946;28;20451;-66
2022/07/26 07:22:19;;;;;;;3.17;2.97;;;23.20;92.10;;;;;;5063928;28;20460;-66
2022/07/26 07:24:50;;;;;;;3.10;2.83;;;23.20;92.90;;;;;;5065714;28;20456;-66
2022/07/26 07:27:22;;;;;;;3.60;3.30;;;23.10;92.30;;;;;;5066519;28;20468;-66
2022/07/26 07:29:56;;;;;;;3.20;3.00;;;23.00;93.10;;;;;;5056377;28;20498;-66
2022/07/26 07:32:26;;;;;;;3.03;2.80;;;22.90;93.30;;;;;;5057730;28;20774;-66
2022/07/26 07:34:57;;;;;;;3.30;2.70;;;22.90;94.60;;;;;;5057386;28;20483;-65
2022/07/26 07:37:28;;;;;;;3.10;2.90;;;22.80;95.00;;;;;;5058330;28;20460;-66
2022/07/26 07:40:19;;;;;;;3.10;2.80;;;22.70;95.60;;;;;;5058652;28;20471;-65
2022/07/26 07:42:51;;;;;;;3.60;3.17;;;22.70;96.80;;;;;;5057772;28;20468;-66
2022/07/26 07:45:22;;;;;;;2.90;2.70;;;22.60;96.80;;;;;;5056930;28;20468;-66
2022/07/26 07:47:53;;;;;;;4.67;4.27;;;22.50;97.90;;;;;;5057182;28;20448;-66
2022/07/26 07:50:24;;;;;;;3.60;3.07;;;22.40;98.40;;;;;;5056923;28;20457;-66
2022/07/26 07:52:57;;;;;;;3.20;2.90;;;22.30;98.80;;;;;;5056290;28;20537;-65
2022/07/26 07:55:30;;;;;;;3.40;3.10;;;22.40;99.90;;;;;;5055539;28;20558;-66
2022/07/26 07:58:15;;;;;;;3.70;3.40;;;22.40;99.90;;;;;;5057696;28;20472;-66
2022/07/26 08:00:48;;;;;;;4.03;3.03;;;22.40;99.90;;;;;;5056397;28;20501;-66
2022/07/26 08:03:19;;;;;;;3.50;3.20;;;22.30;99.90;;;;;;5060562;28;20460;-66
2022/07/26 08:05:50;;;;;;;3.90;3.07;;;22.30;99.90;;;;;;5064350;28;20460;-66
2022/07/26 08:08:21;;;;;;;3.10;2.90;;;22.20;99.90;;;;;;5076239;28;20462;-66
2022/07/26 08:10:52;;;;;;;3.53;3.23;;;22.20;99.90;;;;;;5065044;28;20468;-66
2022/07/26 08:13:27;;;;;;;5.50;3.30;;;22.10;99.90;;;;;;5055323;28;20491;-66
2022/07/26 08:15:58;;;;;;;4.27;3.57;;;22.10;99.90;;;;;;5055757;28;20621;-66
2022/07/26 08:18:29;;;;;;;3.80;3.10;;;22.00;99.90;;;;;;5057163;28;20544;-66
2022/07/26 08:21:02;;;;;;;3.20;3.00;;;22.00;99.90;;;;;;5055532;28;21204;-66
2022/07/26 08:23:33;;;;;;;4.80;3.40;;;22.00;99.90;;;;;;5056432;28;20479;-65
2022/07/26 08:26:04;;;;;;;4.13;3.10;;;21.90;99.90;;;;;;5055246;28;20456;-65
2022/07/26 08:28:38;;;;;;;4.30;3.07;;;21.90;99.90;;;;;;5056299;28;20499;-65
2022/07/26 08:31:18;;;;;;;4.03;3.63;;;21.80;99.90;;;;;;5056544;28;20460;-65
2022/07/26 08:33:49;;;;;;;4.23;3.83;;;21.80;99.90;;;;;;5056758;28;20472;-65
2022/07/26 08:36:20;;;;;;;4.70;3.30;;;21.70;99.90;;;;;;5052849;28;20492;-65
2022/07/26 08:38:51;;;;;;;3.40;3.10;;;21.70;99.90;;;;;;5056065;28;20466;-66
2022/07/26 08:41:22;;;;;;;3.73;3.43;;;21.70;99.90;;;;;;5056063;28;20460;-65
2022/07/26 08:43:54;;;;;;;4.00;3.20;;;21.60;99.90;;;;;;5056419;28;20464;-66
2022/07/26 08:46:25;;;;;;;4.50;3.73;;;21.60;99.90;;;;;;5058100;28;20464;-65
2022/07/26 08:48:57;;;;;;;3.20;2.90;;;21.50;99.90;;;;;;5066542;28;20548;-66
2022/07/26 08:51:28;;;;;;;3.93;3.53;;;21.50;99.90;;;;;;5064470;28;20449;-66
2022/07/26 08:54:01;;;;;;;4.50;3.37;;;21.40;99.90;;;;;;5062761;28;20460;-66
2022/07/26 08:56:36;;;;;;;3.40;3.10;;;21.40;99.90;;;;;;5072201;28;20836;-66
2022/07/26 08:59:14;;;;;;;5.33;4.27;;;21.40;99.90;;;;;;5071842;28;20815;-66
2022/07/26 09:01:57;;;;;;;4.10;3.70;;;21.30;99.90;;;;;;5069042;28;20487;-66
2022/07/26 09:04:30;;;;;;;3.67;3.37;;;21.30;99.90;;;;;;5052025;28;20454;-66
2022/07/26 09:07:06;;;;;;;3.90;3.37;;;21.20;99.90;;;;;;5061070;28;20491;-67
2022/07/26 09:09:39;;;;;;;4.90;4.50;;;21.20;99.90;;;;;;5064104;28;20434;-66
2022/07/26 09:12:18;;;;;;;4.23;3.87;;;21.10;99.90;;;;;;5065382;28;20460;-65
2022/07/26 09:14:50;;;;;;;4.00;3.57;;;21.10;99.90;;;;;;5061181;28;20460;-65
2022/07/26 09:17:24;;;;;;;4.00;3.70;;;21.00;99.90;;;;;;5060861;28;20607;-66
2022/07/26 09:20:08;;;;;;;3.67;3.37;;;21.00;99.90;;;;;;5064877;28;21302;-65
2022/07/26 09:22:40;;;;;;;3.67;3.37;;;21.00;99.90;;;;;;5074265;28;20504;-66
2022/07/26 09:25:22;;;;;;;2.87;2.60;;;20.90;99.90;;;;;;5062247;28;20462;-66
2022/07/26 09:27:54;;;;;;;3.03;2.83;;;20.90;99.90;;;;;;5062687;28;20460;-66
2022/07/26 09:30:28;;;;;;;4.03;3.33;;;20.80;99.90;;;;;;5053274;28;20516;-65
2022/07/26 09:33:00;;;;;;;4.47;3.90;;;20.80;99.90;;;;;;5055691;28;21252;-66
2022/07/26 09:35:32;;;;;;;4.20;3.60;;;20.80;99.90;;;;;;5054499;28;20507;-65
2022/07/26 09:38:21;;;;;;;3.57;3.27;;;20.70;99.90;;;;;;5055138;28;20479;-66
2022/07/26 09:40:54;;;;;;;4.93;3.97;;;20.70;99.90;;;;;;5055451;28;20427;-66
2022/07/26 09:43:25;;;;;;;4.30;3.10;;;20.70;99.90;;;;;;5055640;28;20812;-66
2022/07/26 09:46:09;;;;;;;4.30;4.00;;;20.60;99.90;;;;;;5053915;28;20479;-66
2022/07/26 09:48:40;;;;;;;4.17;3.70;;;20.60;99.90;;;;;;5053441;28;20491;-66
2022/07/26 09:51:39;;;;;;;3.53;3.13;;;20.50;99.90;;;;;;5054080;28;20565;-66
2022/07/26 09:54:11;;;;;;;4.23;3.83;;;20.40;99.90;;;;;;5054579;28;20510;-65
2022/07/26 09:56:48;;;;;;;5.60;3.97;;;20.40;99.90;;;;;;5054415;28;20500;-65
2022/07/26 09:59:21;;;;;;;4.43;3.70;;;20.40;99.90;;;;;;5055285;28;20439;-65
2022/07/26 10:01:56;;;;;;;3.97;3.67;;;20.30;99.90;;;;;;5054625;28;20456;-66
2022/07/26 10:04:27;;;;;;;3.40;2.97;;;20.30;99.90;;;;;;5050171;28;20454;-65
2022/07/26 10:06:58;;;;;;;4.57;3.83;;;20.20;99.90;;;;;;5058013;28;20472;-66
2022/07/26 10:09:38;;;;;;;3.70;3.40;;;20.20;99.90;;;;;;5073307;28;20465;-66
2022/07/26 10:12:13;;;;;;;4.03;3.50;;;20.20;99.90;;;;;;5062172;28;20459;-66
2022/07/26 10:14:46;;;;;;;4.00;3.40;;;20.20;99.90;;;;;;5061671;28;20532;-65
2022/07/26 10:17:48;;;;;;;4.23;3.83;;;20.20;99.90;;;;;;5060770;28;22283;-66
2022/07/26 10:20:47;;;;;;;4.33;3.60;;;20.20;99.90;;;;;;5062335;28;20534;-66
2022/07/26 10:23:38;;;;;;;3.53;3.23;;;20.10;99.90;;;;;;5061651;28;20599;-66
2022/07/26 10:26:13;;;;;;;4.33;3.93;;;20.10;99.90;;;;;;5056066;28;20470;-66
2022/07/26 10:28:44;;;;;;;5.37;4.07;;;20.00;99.90;;;;;;5059792;28;20490;-65
2022/07/26 10:31:30;;;;;;;5.10;3.13;;;20.00;99.90;;;;;;5054268;28;20484;-65
2022/07/26 10:34:03;;;;;;;4.80;4.17;;;20.00;99.90;;;;;;5057770;28;20462;-65
2022/07/26 10:36:36;;;;;;;4.20;3.73;;;19.90;99.90;;;;;;5060916;28;20470;-65
2022/07/26 10:39:10;;;;;;;4.17;3.77;;;20.00;99.90;;;;;;5059201;28;20535;-65
2022/07/26 10:41:43;;;;;;;3.70;3.40;;;19.90;99.90;;;;;;5061403;28;20454;-66
2022/07/26 10:44:22;;;;;;;3.67;3.37;;;19.90;99.90;;;;;;5061808;28;20474;-65
2022/07/26 10:46:58;;;;;;;4.50;4.10;;;20.00;99.90;;;;;;5060974;28;21020;-65
2022/07/26 10:49:34;;;;;;;4.20;3.87;;;20.00;99.90;;;;;;5061147;28;21141;-65
2022/07/26 10:52:18;;;;;;;3.73;3.43;;;19.90;99.90;;;;;;5072474;28;20951;-65
2022/07/26 10:55:18;;;;;;;4.73;4.23;;;19.80;99.90;;;;;;5061683;28;20438;-65
2022/07/26 10:57:50;;;;;;;4.83;4.43;;;19.80;99.90;;;;;;5063887;28;20453;-65
2022/07/26 11:00:23;;;;;;;4.00;3.57;;;19.80;99.90;;;;;;5052472;28;20464;-65
2022/07/26 11:02:59;;;;;;;4.13;3.53;;;19.80;99.90;;;;;;5054114;28;20452;-66
2022/07/26 11:05:33;;;;;;;4.10;3.70;;;19.80;99.90;;;;;;5055242;28;20451;-65
2022/07/26 11:08:08;;;;;;;3.50;3.20;;;19.80;99.90;;;;;;5053615;28;20556;-64
2022/07/26 11:10:41;;;;;;;3.77;3.47;;;19.70;99.90;;;;;;5055229;28;20464;-65
2022/07/26 11:13:15;;;;;;;3.40;3.10;;;19.70;99.90;;;;;;5054435;28;20585;-64
2022/07/26 11:15:48;;;;;;;4.47;4.10;;;19.60;99.90;;;;;;5054831;28;20456;-65
2022/07/26 11:18:26;;;;;;;4.97;4.40;;;19.60;99.90;;;;;;5053268;28;20480;-66
2022/07/26 11:21:12;;;;;;;3.93;3.63;;;19.60;99.90;;;;;;5052892;28;21338;-65
2022/07/26 11:23:44;;;;;;;6.17;3.93;;;19.60;99.90;;;;;;5055385;28;20516;-65
2022/07/26 11:26:18;;;;;;;3.70;3.40;;;19.50;99.90;;;;;;5057276;28;22475;-65
2022/07/26 11:28:54;;;;;;;5.30;4.27;;;19.50;99.90;;;;;;5058630;28;20456;-65
2022/07/26 11:31:29;;;;;;;4.20;3.80;;;19.40;99.90;;;;;;5069937;28;20466;-65
2022/07/26 11:34:21;;;;;;;4.00;3.60;;;19.40;99.90;;;;;;5067076;28;20460;-65
2022/07/26 11:36:55;;;;;;;4.73;4.33;;;19.30;99.90;;;;;;5063353;28;20438;-65
2022/07/26 11:39:27;;;;;;;5.07;4.03;;;19.30;99.90;;;;;;5062834;28;20438;-65
2022/07/26 11:42:00;;;;;;;4.80;4.40;;;19.30;99.90;;;;;;5074480;28;20467;-65
2022/07/26 11:44:31;;;;;;;3.90;3.60;;;19.30;99.90;;;;;;5064233;28;20456;-65
2022/07/26 11:47:12;;;;;;;5.10;4.37;;;19.30;99.90;;;;;;5063478;28;20614;-65
2022/07/26 11:49:43;;;;;;;5.27;4.13;;;19.30;99.90;;;;;;5064527;28;20435;-65
2022/07/26 11:52:36;;;;;;;6.20;4.30;;;19.20;99.90;;;;;;5063035;28;20506;-65
2022/07/26 11:55:08;;;;;;;5.23;4.50;;;19.20;99.90;;;;;;5062527;28;20464;-65
2022/07/26 11:57:39;;;;;;;6.50;4.50;;;19.20;99.90;;;;;;5067190;28;20466;-66
2022/07/26 12:00:10;;;;;;;5.53;4.20;;;19.10;99.90;;;;;;5064122;28;20465;-65
2022/07/26 12:02:41;;;;;;;4.87;4.23;;;19.10;99.90;;;;;;5066241;28;22042;-65
2022/07/26 12:05:17;;;;;;;4.30;3.90;;;19.10;99.90;;;;;;5063073;28;20468;-65
2022/07/26 12:08:02;;;;;;;4.20;3.83;;;19.10;99.90;;;;;;5062488;28;20591;-65
2022/07/26 12:10:34;;;;;;;5.80;4.17;;;19.00;99.90;;;;;;5058051;28;21409;-65
2022/07/26 12:13:09;;;;;;;4.87;4.43;;;19.00;99.90;;;;;;5056446;28;20471;-66
2022/07/26 12:15:48;;;;;;;6.10;4.13;;;19.00;99.90;;;;;;5056857;28;20470;-65
2022/07/26 12:18:26;;;;;;;5.90;4.40;;;19.00;99.90;;;;;;5056717;28;20431;-65
2022/07/26 12:21:02;;;;;;;4.20;3.80;;;19.00;99.90;;;;;;5055525;28;21038;-65
2022/07/26 12:23:49;;;;;;;8.37;4.20;;;18.90;99.90;;;;;;5056427;28;20442;-65
2022/07/26 12:26:27;;;;;;;4.57;4.27;;;18.80;99.90;;;;;;5055609;28;20467;-65
2022/07/26 12:29:23;;;;;;;4.23;3.83;;;18.80;99.90;;;;;;5056124;28;20495;-66
2022/07/26 12:32:02;;;;;;;5.57;5.07;;;18.80;99.90;;;;;;5055887;28;20439;-65
2022/07/26 12:34:41;;;;;;;5.20;4.70;;;18.80;99.90;;;;;;5055986;28;20467;-65
2022/07/26 12:37:15;;;;;;;5.30;4.80;;;18.80;99.90;;;;;;5055223;28;20449;-65
2022/07/26 12:40:07;;;;;;;4.63;4.13;;;18.80;99.90;;;;;;5055739;28;20460;-65
2022/07/26 12:42:39;;;;;;;4.20;3.60;;;18.80;99.90;;;;;;5056910;28;20443;-65
2022/07/26 12:45:12;;;;;;;4.20;3.80;;;18.70;99.90;;;;;;5058521;28;20434;-65
2022/07/26 12:47:46;;;;;;;5.10;4.60;;;18.80;99.90;;;;;;5062860;28;20500;-65
2022/07/26 12:50:19;;;;;;;5.17;4.67;;;18.80;99.90;;;;;;5062807;28;20438;-65
2022/07/26 12:52:50;;;;;;;6.20;4.97;;;18.70;99.90;;;;;;5064108;28;20431;-65
2022/07/26 12:55:22;;;;;;;4.97;4.47;;;18.70;99.90;;;;;;5063414;28;20501;-65
2022/07/26 12:57:53;;;;;;;6.43;4.77;;;18.70;99.90;;;;;;5061551;28;20460;-65
2022/07/26 13:00:26;;;;;;;5.13;4.60;;;18.70;99.90;;;;;;5063723;28;21083;-65
2022/07/26 13:02:58;;;;;;;5.70;5.13;;;18.70;99.90;;;;;;5063173;28;20439;-65
2022/07/26 13:05:30;;;;;;;5.07;4.57;;;18.70;99.90;;;;;;5061697;28;20867;-65
2022/07/26 13:08:01;;;;;;;7.50;4.93;;;18.60;99.90;;;;;;5062146;28;20466;-66
2022/07/26 13:10:33;;;;;;;5.17;4.33;;;18.60;99.90;;;;;;5062768;28;20468;-66
2022/07/26 13:13:05;;;;;;;5.27;4.77;;;18.60;99.90;;;;;;5067679;28;20545;-66
2022/07/26 13:15:36;;;;;;;5.37;4.30;;;18.70;99.90;;;;;;5063364;28;20439;-65
2022/07/26 13:18:08;;;;;;;4.30;4.00;;;18.60;99.90;;;;;;5063037;28;20435;-66
2022/07/26 13:20:39;;;;;;;4.43;4.00;;;18.70;99.90;;;;;;5053962;28;20446;-66